Time;durP1;ratioP1;P1;durP2;ratioP2;P2;SDS_P1;SDS_P2;PMS_P1;PMS_P2;Temp;Humidity;BMP_temperature;BMP_pressure;BME280_temperature;BME280_humidity;BME280_pressure;Samples;Min_cycle;Max_cycle;Signal;HPM_P1;HPM_P2
2022/07/28 00:01:41;;;;;;;10.37;5.17;;;15.80;99.90;;;;;;5083481;28;20266;-80
2022/07/28 00:04:07;;;;;;;8.23;5.47;;;15.80;99.90;;;;;;5084110;28;20169;-80
2022/07/28 00:06:32;;;;;;;9.23;5.63;;;15.70;99.90;;;;;;5082639;28;20283;-80
2022/07/28 00:08:58;;;;;;;6.60;6.03;;;15.70;99.90;;;;;;5082700;28;20177;-80
2022/07/28 00:11:24;;;;;;;8.27;5.60;;;15.70;99.90;;;;;;5083863;28;20179;-80
2022/07/28 00:13:49;;;;;;;6.00;5.40;;;15.70;99.90;;;;;;5082665;28;20177;-80
2022/07/28 00:16:15;;;;;;;8.53;5.93;;;15.70;99.90;;;;;;5084187;28;20185;-80
2022/07/28 00:18:41;;;;;;;6.67;5.33;;;15.70;99.90;;;;;;5085019;28;20173;-80
2022/07/28 00:21:07;;;;;;;7.83;5.67;;;15.60;99.90;;;;;;5083286;28;20187;-80
2022/07/28 00:23:32;;;;;;;8.33;6.10;;;15.60;99.90;;;;;;5083218;28;20639;-80
2022/07/28 00:25:58;;;;;;;6.03;5.50;;;15.60;99.90;;;;;;5082127;28;20216;-80
2022/07/28 00:28:23;;;;;;;6.80;6.10;;;15.60;99.90;;;;;;5084713;28;20218;-80
2022/07/28 00:30:49;;;;;;;6.80;6.10;;;15.60;99.90;;;;;;5083974;28;20177;-81
2022/07/28 00:33:15;;;;;;;7.60;5.93;;;15.60;99.90;;;;;;5083660;28;20177;-80
2022/07/28 00:35:40;;;;;;;10.03;5.80;;;15.50;99.90;;;;;;5083499;28;20670;-80
2022/07/28 00:38:06;;;;;;;7.13;5.20;;;15.50;99.90;;;;;;5083387;28;20177;-80
2022/07/28 00:43:16;;;;;;;6.70;5.53;;;15.50;99.90;;;;;;5086755;28;20164;-80
2022/07/28 00:45:42;;;;;;;7.70;6.90;;;15.40;99.90;;;;;;5083340;28;20216;-80
2022/07/28 00:48:08;;;;;;;9.77;5.93;;;15.40;99.90;;;;;;5081915;28;20177;-80
2022/07/28 00:50:34;;;;;;;6.07;5.47;;;15.40;99.90;;;;;;5081578;28;20173;-80
2022/07/28 00:53:00;;;;;;;9.13;5.80;;;15.30;99.90;;;;;;5083405;28;20192;-80
2022/07/28 00:55:25;;;;;;;7.03;5.57;;;15.30;99.90;;;;;;5083155;28;20192;-80
2022/07/28 00:57:51;;;;;;;10.33;5.80;;;15.30;99.90;;;;;;5082246;28;20177;-80
2022/07/28 01:00:17;;;;;;;10.17;6.17;;;15.30;99.90;;;;;;5080977;28;20670;-81
2022/07/28 01:02:45;;;;;;;10.23;5.70;;;15.20;99.90;;;;;;5081459;28;20177;-80
2022/07/28 01:05:13;;;;;;;10.03;6.73;;;15.20;99.90;;;;;;5081331;28;20685;-80
2022/07/28 01:07:53;;;;;;;7.50;6.70;;;15.20;99.90;;;;;;5081309;28;20258;-80
2022/07/28 01:10:35;;;;;;;8.03;6.87;;;15.10;99.90;;;;;;5082441;28;20306;-80
2022/07/28 01:13:12;;;;;;;8.23;6.47;;;15.10;99.90;;;;;;5082742;28;20165;-80
2022/07/28 01:16:00;;;;;;;7.17;6.43;;;15.10;99.90;;;;;;5080947;28;20220;-81
2022/07/28 01:18:31;;;;;;;8.97;5.70;;;15.10;99.90;;;;;;5082496;28;20161;-80
2022/07/28 01:21:07;;;;;;;6.63;6.03;;;15.10;99.90;;;;;;5081058;28;20200;-80
2022/07/28 01:23:35;;;;;;;7.10;6.40;;;15.00;99.90;;;;;;5081180;28;20183;-80
2022/07/28 01:26:45;;;;;;;7.60;6.80;;;15.00;99.90;;;;;;5080956;28;20220;-80
2022/07/28 01:29:30;;;;;;;10.77;6.50;;;14.90;99.90;;;;;;5053185;28;20220;-80
2022/07/28 01:32:02;;;;;;;7.37;6.57;;;14.90;99.90;;;;;;5082502;28;20203;-80
2022/07/28 01:34:39;;;;;;;9.50;7.10;;;14.90;99.90;;;;;;5082933;28;20561;-80
2022/07/28 01:37:21;;;;;;;8.47;6.87;;;14.80;99.90;;;;;;5081262;28;20197;-80
2022/07/28 01:39:52;;;;;;;8.70;6.83;;;14.80;99.90;;;;;;5080810;28;20212;-80
2022/07/28 01:42:22;;;;;;;11.73;6.67;;;14.80;99.90;;;;;;5080944;28;20624;-80
2022/07/28 01:44:52;;;;;;;8.40;7.43;;;14.80;99.90;;;;;;5080541;28;20169;-80
2022/07/28 01:47:20;;;;;;;8.03;6.90;;;14.80;99.90;;;;;;5082930;28;20159;-80
2022/07/28 01:49:49;;;;;;;7.43;6.67;;;14.80;99.90;;;;;;5082671;28;20554;-81
2022/07/28 01:52:17;;;;;;;8.20;7.30;;;14.80;99.90;;;;;;5082263;28;20207;-80
2022/07/28 01:54:46;;;;;;;11.20;7.10;;;14.70;99.90;;;;;;5081430;28;20192;-80
2022/07/28 01:57:13;;;;;;;9.10;6.90;;;14.70;99.90;;;;;;5082235;28;20164;-80
2022/07/28 01:59:40;;;;;;;7.33;6.63;;;14.70;99.90;;;;;;5081614;28;20218;-80
2022/07/28 02:02:08;;;;;;;7.33;6.63;;;14.70;99.90;;;;;;5081732;28;20270;-80
2022/07/28 02:04:37;;;;;;;7.60;6.80;;;14.70;99.90;;;;;;5082349;28;20173;-80
2022/07/28 02:07:04;;;;;;;11.33;6.83;;;14.60;99.90;;;;;;5082121;28;20712;-80
2022/07/28 02:09:31;;;;;;;7.47;6.63;;;14.60;99.90;;;;;;5083066;28;20590;-81
2022/07/28 02:11:58;;;;;;;9.57;7.17;;;14.60;99.90;;;;;;5088491;28;20200;-80
2022/07/28 02:14:26;;;;;;;10.07;7.30;;;14.60;99.90;;;;;;5089432;28;20677;-80
2022/07/28 02:17:00;;;;;;;8.13;7.30;;;14.60;99.90;;;;;;5088202;28;20353;-81
2022/07/28 02:19:27;;;;;;;7.33;6.63;;;14.60;99.90;;;;;;5088292;28;20212;-80
2022/07/28 02:21:54;;;;;;;8.87;7.07;;;14.50;99.90;;;;;;5089552;28;20176;-81
2022/07/28 02:24:25;;;;;;;7.03;6.33;;;14.50;99.90;;;;;;5091013;28;20176;-80
2022/07/28 02:26:59;;;;;;;13.03;7.50;;;14.50;99.90;;;;;;5090218;28;20271;-80
2022/07/28 02:29:27;;;;;;;8.87;7.37;;;14.50;99.90;;;;;;5088192;28;20210;-80
2022/07/28 02:32:03;;;;;;;11.33;7.60;;;14.40;99.90;;;;;;5087113;28;20247;-81
2022/07/28 02:34:30;;;;;;;8.43;7.53;;;14.40;99.90;;;;;;5088506;28;20176;-80
2022/07/28 02:36:59;;;;;;;7.50;6.70;;;14.40;99.90;;;;;;5088100;28;20198;-81
2022/07/28 02:39:30;;;;;;;9.00;6.97;;;14.40;99.90;;;;;;5087652;28;20253;-80
2022/07/28 02:42:12;;;;;;;8.47;7.43;;;14.30;99.90;;;;;;5088020;28;20159;-80
2022/07/28 02:44:45;;;;;;;11.97;7.60;;;14.30;99.90;;;;;;5088078;28;20196;-80
2022/07/28 02:47:15;;;;;;;11.77;8.53;;;14.30;99.90;;;;;;5086754;28;20235;-80
2022/07/28 02:49:42;;;;;;;11.47;8.30;;;14.30;99.90;;;;;;5086361;28;20761;-80
2022/07/28 02:52:10;;;;;;;10.57;8.10;;;14.20;99.90;;;;;;5086465;28;20206;-80
2022/07/28 02:54:36;;;;;;;9.67;7.40;;;14.30;99.90;;;;;;5086225;28;20173;-81
2022/07/28 02:57:04;;;;;;;8.90;7.20;;;14.20;99.90;;;;;;5087490;28;20191;-80
2022/07/28 02:59:30;;;;;;;10.03;7.57;;;14.20;99.90;;;;;;5086837;28;20239;-80
2022/07/28 03:01:57;;;;;;;9.83;7.53;;;14.10;99.90;;;;;;5086694;28;20180;-80
2022/07/28 03:07:09;;;;;;;11.17;7.70;;;14.10;99.90;;;;;;5087219;28;20247;-83
2022/07/28 03:09:40;;;;;;;9.03;7.97;;;14.10;99.90;;;;;;5086037;28;20233;-80
2022/07/28 03:12:06;;;;;;;12.03;8.07;;;14.10;99.90;;;;;;5086385;28;20181;-80
2022/07/28 03:14:32;;;;;;;8.53;7.73;;;14.10;99.90;;;;;;5087542;28;20168;-81
2022/07/28 03:16:57;;;;;;;9.23;8.23;;;14.10;99.90;;;;;;5086494;28;20284;-80
2022/07/28 03:19:23;;;;;;;9.97;7.77;;;14.00;99.90;;;;;;5086483;28;20220;-80
2022/07/28 03:21:51;;;;;;;7.93;7.17;;;14.00;99.90;;;;;;5084936;28;20180;-80
2022/07/28 03:24:21;;;;;;;7.63;6.93;;;14.00;99.90;;;;;;5084101;28;20187;-81
2022/07/28 03:27:03;;;;;;;8.27;7.30;;;14.00;99.90;;;;;;5083412;28;20572;-81
2022/07/28 03:29:31;;;;;;;8.03;7.23;;;14.00;99.90;;;;;;5084205;28;20165;-81
2022/07/28 03:31:58;;;;;;;8.80;7.27;;;13.90;99.90;;;;;;5084324;28;20181;-80
2022/07/28 03:34:24;;;;;;;9.80;8.20;;;13.90;99.90;;;;;;5085010;28;20237;-81
2022/07/28 03:37:00;;;;;;;11.80;8.50;;;13.90;99.90;;;;;;5085263;28;20196;-80
2022/07/28 03:39:28;;;;;;;8.33;7.53;;;13.90;99.90;;;;;;5084956;28;20250;-81
2022/07/28 03:41:56;;;;;;;10.93;8.20;;;13.80;99.90;;;;;;5082959;28;20177;-80
2022/07/28 03:44:23;;;;;;;8.37;7.50;;;13.80;99.90;;;;;;5083434;28;20550;-81
2022/07/28 03:46:49;;;;;;;8.73;7.70;;;13.80;99.90;;;;;;5083587;28;20294;-81
2022/07/28 03:49:14;;;;;;;9.63;8.27;;;13.80;99.90;;;;;;5084937;28;20176;-80
2022/07/28 03:51:40;;;;;;;11.00;9.27;;;13.80;99.90;;;;;;5084296;28;20180;-81
2022/07/28 03:54:06;;;;;;;9.50;8.27;;;13.80;99.90;;;;;;5083982;28;20181;-80
2022/07/28 03:56:31;;;;;;;12.67;8.17;;;13.80;99.90;;;;;;5084144;28;20253;-81
2022/07/28 03:58:57;;;;;;;11.13;8.97;;;13.80;99.90;;;;;;5083862;28;20208;-81
2022/07/28 04:01:23;;;;;;;9.43;8.47;;;13.80;99.90;;;;;;5085955;28;20176;-81
2022/07/28 04:03:48;;;;;;;9.07;8.17;;;13.70;99.90;;;;;;5085075;28;20703;-81
2022/07/28 04:06:14;;;;;;;10.10;8.93;;;13.70;99.90;;;;;;5084813;28;20206;-80
2022/07/28 04:08:40;;;;;;;10.00;9.00;;;13.70;99.90;;;;;;5084156;28;20176;-80
2022/07/28 04:11:07;;;;;;;10.90;9.10;;;13.70;99.90;;;;;;5084818;28;20729;-81
2022/07/28 04:13:35;;;;;;;10.83;9.63;;;13.70;99.90;;;;;;5083919;28;20176;-81
2022/07/28 04:16:01;;;;;;;11.83;9.07;;;13.70;99.90;;;;;;5083493;28;20221;-81
2022/07/28 04:18:27;;;;;;;9.53;8.63;;;13.70;99.90;;;;;;5082832;28;20204;-80
2022/07/28 04:20:54;;;;;;;12.00;9.13;;;13.70;99.90;;;;;;5084875;28;20197;-81
2022/07/28 04:23:21;;;;;;;10.67;9.30;;;13.70;99.90;;;;;;5083829;28;20196;-81
2022/07/28 04:25:47;;;;;;;11.47;9.20;;;13.70;99.90;;;;;;5082695;28;20200;-81
2022/07/28 04:28:13;;;;;;;10.67;9.47;;;13.70;99.90;;;;;;5083806;28;20537;-81
2022/07/28 04:30:39;;;;;;;10.27;9.00;;;13.70;99.90;;;;;;5084015;28;20177;-80
2022/07/28 04:33:04;;;;;;;12.33;9.77;;;13.70;99.90;;;;;;5083089;28;20185;-81
2022/07/28 04:35:30;;;;;;;12.77;10.37;;;13.80;99.90;;;;;;5082655;28;20617;-81
2022/07/28 04:37:59;;;;;;;11.07;9.90;;;13.80;99.90;;;;;;5084748;28;20184;-81
2022/07/28 04:40:25;;;;;;;10.73;9.63;;;13.80;99.90;;;;;;5082818;28;20207;-81
2022/07/28 04:42:51;;;;;;;12.07;10.17;;;13.80;99.90;;;;;;5084208;28;20168;-81
2022/07/28 04:45:17;;;;;;;10.57;9.47;;;13.90;99.90;;;;;;5084080;28;20192;-81
2022/07/28 04:47:43;;;;;;;12.43;9.77;;;13.90;99.90;;;;;;5084415;28;20257;-81
2022/07/28 04:50:10;;;;;;;11.77;9.83;;;13.90;99.90;;;;;;5084973;28;20173;-79
2022/07/28 04:52:37;;;;;;;10.60;9.60;;;13.90;99.90;;;;;;5082891;28;20191;-79
2022/07/28 04:55:04;;;;;;;10.83;9.73;;;14.00;99.90;;;;;;5083912;28;20250;-79
2022/07/28 04:57:29;;;;;;;11.03;10.00;;;14.10;99.90;;;;;;5083372;28;20209;-79
2022/07/28 04:59:56;;;;;;;11.77;9.73;;;14.10;99.90;;;;;;5084072;28;20723;-79
2022/07/28 05:02:22;;;;;;;11.03;9.30;;;14.10;99.90;;;;;;5084552;28;20229;-79
2022/07/28 05:04:47;;;;;;;10.93;9.83;;;14.20;99.90;;;;;;5083245;28;20188;-79
2022/07/28 05:07:13;;;;;;;10.37;9.37;;;14.20;99.90;;;;;;5084811;28;20173;-79
2022/07/28 05:09:39;;;;;;;10.57;9.57;;;14.20;99.90;;;;;;5083862;28;20176;-79
2022/07/28 05:12:05;;;;;;;14.93;10.00;;;14.20;99.90;;;;;;5083069;28;20180;-79
2022/07/28 05:14:31;;;;;;;10.67;9.63;;;14.20;99.90;;;;;;5083762;28;20511;-79
2022/07/28 05:16:57;;;;;;;14.10;9.70;;;14.20;99.90;;;;;;5083479;28;20222;-79
2022/07/28 05:19:23;;;;;;;10.73;9.63;;;14.30;99.90;;;;;;5085108;28;20204;-79
2022/07/28 05:21:48;;;;;;;15.00;9.53;;;14.30;99.90;;;;;;5085179;28;20218;-79
2022/07/28 05:24:15;;;;;;;10.53;8.90;;;14.40;99.90;;;;;;5093259;28;20183;-79
2022/07/28 05:26:40;;;;;;;9.83;8.77;;;14.40;99.90;;;;;;5094682;28;20192;-79
2022/07/28 05:29:06;;;;;;;10.90;8.87;;;14.40;99.90;;;;;;5096009;28;20179;-79
2022/07/28 05:31:32;;;;;;;16.23;8.50;;;14.50;99.90;;;;;;5103871;28;20180;-80
2022/07/28 05:33:59;;;;;;;9.27;8.27;;;14.50;99.90;;;;;;5104915;28;20176;-78
2022/07/28 05:36:25;;;;;;;12.17;8.43;;;14.50;99.90;;;;;;5103679;28;20204;-80
2022/07/28 05:38:51;;;;;;;13.60;9.13;;;14.60;99.90;;;;;;5103981;28;20196;-80
2022/07/28 05:41:16;;;;;;;10.20;9.17;;;14.60;99.90;;;;;;5105755;28;20169;-81
2022/07/28 05:43:42;;;;;;;13.80;8.90;;;14.70;99.90;;;;;;5106025;28;20176;-81
2022/07/28 05:46:08;;;;;;;11.53;8.63;;;14.70;99.90;;;;;;5114376;28;20206;-81
2022/07/28 05:48:34;;;;;;;10.93;9.37;;;14.70;99.90;;;;;;5117088;28;20205;-80
2022/07/28 05:51:01;;;;;;;12.73;8.93;;;14.80;99.90;;;;;;5116363;28;20195;-82
2022/07/28 05:53:26;;;;;;;9.97;8.13;;;14.80;99.90;;;;;;5117885;28;20157;-83
2022/07/28 05:55:52;;;;;;;8.70;7.80;;;14.90;99.90;;;;;;5117240;28;20221;-81
2022/07/28 05:58:22;;;;;;;10.37;8.20;;;15.00;99.90;;;;;;5117329;28;20309;-82
2022/07/28 06:00:48;;;;;;;12.80;8.60;;;15.00;99.90;;;;;;5111609;28;20219;-82
2022/07/28 06:03:13;;;;;;;11.83;9.50;;;15.10;99.90;;;;;;5100926;28;20172;-81
2022/07/28 06:05:39;;;;;;;11.87;9.27;;;15.10;99.90;;;;;;5098877;28;20238;-82
2022/07/28 06:08:05;;;;;;;11.57;9.00;;;15.20;99.90;;;;;;5100998;28;20257;-82
2022/07/28 06:13:15;;;;;;;9.77;8.77;;;15.30;99.90;;;;;;5100132;28;20186;-82
2022/07/28 06:15:41;;;;;;;10.57;9.47;;;15.40;99.90;;;;;;5098311;28;20196;-82
2022/07/28 06:18:07;;;;;;;10.40;9.20;;;15.40;99.90;;;;;;5098034;28;20191;-82
2022/07/28 06:20:33;;;;;;;10.17;9.07;;;15.50;99.90;;;;;;5098049;28;20201;-82
2022/07/28 06:22:58;;;;;;;11.90;9.97;;;15.50;99.90;;;;;;5099151;28;20173;-82
2022/07/28 06:25:28;;;;;;;11.83;9.77;;;15.60;99.90;;;;;;5098291;28;20249;-82
2022/07/28 06:27:55;;;;;;;12.90;8.87;;;15.70;99.90;;;;;;5097692;28;20649;-82
2022/07/28 06:30:22;;;;;;;10.33;9.33;;;15.70;99.90;;;;;;5100309;28;20186;-82
2022/07/28 06:32:48;;;;;;;9.83;8.83;;;15.80;99.90;;;;;;5098359;28;20184;-82
2022/07/28 06:35:15;;;;;;;9.70;8.80;;;15.90;99.90;;;;;;5098117;28;20211;-82
2022/07/28 06:37:44;;;;;;;11.50;10.03;;;16.00;99.90;;;;;;5097359;28;20184;-82
2022/07/28 06:40:12;;;;;;;10.23;9.07;;;16.00;99.90;;;;;;5099816;28;20267;-82
2022/07/28 06:42:38;;;;;;;9.33;8.33;;;16.20;99.90;;;;;;5100005;28;20614;-82
2022/07/28 06:45:05;;;;;;;10.33;9.27;;;16.20;99.90;;;;;;5097598;28;20206;-82
2022/07/28 06:47:31;;;;;;;11.63;9.60;;;16.30;99.90;;;;;;5099491;28;20180;-82
2022/07/28 06:49:57;;;;;;;12.07;9.03;;;16.40;99.90;;;;;;5099764;28;20180;-82
2022/07/28 06:52:23;;;;;;;10.67;9.67;;;16.40;99.90;;;;;;5099562;28;20180;-82
2022/07/28 06:54:50;;;;;;;11.13;8.60;;;16.50;99.90;;;;;;5101281;28;20179;-82
2022/07/28 06:57:21;;;;;;;9.50;8.43;;;16.60;99.90;;;;;;5104478;28;20180;-83
2022/07/28 06:59:49;;;;;;;9.33;8.07;;;16.80;99.90;;;;;;5105483;28;20205;-82
2022/07/28 07:02:16;;;;;;;9.43;8.53;;;16.80;99.90;;;;;;5105134;28;20176;-82
2022/07/28 07:04:42;;;;;;;10.23;8.73;;;16.90;99.90;;;;;;5104107;28;20183;-82
2022/07/28 07:07:08;;;;;;;9.53;8.17;;;17.00;99.90;;;;;;5103706;28;20191;-82
2022/07/28 07:09:34;;;;;;;11.07;8.50;;;17.10;99.90;;;;;;5103605;28;20176;-82
2022/07/28 07:12:00;;;;;;;9.70;8.53;;;17.20;99.90;;;;;;5105684;28;20171;-82
2022/07/28 07:14:26;;;;;;;8.70;7.90;;;17.30;99.90;;;;;;5107325;28;20176;-82
2022/07/28 07:16:52;;;;;;;10.20;9.07;;;17.40;99.90;;;;;;5104571;28;20253;-82
2022/07/28 07:19:19;;;;;;;12.50;8.13;;;17.50;99.90;;;;;;5103113;28;20298;-82
2022/07/28 07:21:46;;;;;;;12.07;8.33;;;17.60;99.90;;;;;;5102423;28;20204;-82
2022/07/28 07:24:11;;;;;;;9.10;8.10;;;17.70;99.90;;;;;;5103786;28;20176;-82
2022/07/28 07:26:37;;;;;;;11.77;8.07;;;17.80;99.90;;;;;;5103371;28;20578;-82
2022/07/28 07:29:04;;;;;;;9.57;8.40;;;17.90;99.90;;;;;;5101610;28;20172;-82
2022/07/28 07:31:35;;;;;;;10.33;8.40;;;18.10;99.90;;;;;;5101532;28;20263;-82
2022/07/28 07:34:01;;;;;;;9.07;7.73;;;18.20;99.90;;;;;;5103699;28;20176;-82
2022/07/28 07:36:27;;;;;;;10.67;7.80;;;18.30;99.90;;;;;;5103008;28;20192;-82
2022/07/28 07:38:53;;;;;;;9.00;7.77;;;18.40;99.90;;;;;;5104448;28;20216;-82
2022/07/28 07:41:18;;;;;;;7.80;7.03;;;18.40;99.90;;;;;;5103586;28;20183;-83
2022/07/28 07:43:45;;;;;;;9.00;7.60;;;18.50;99.90;;;;;;5104120;28;20176;-82
2022/07/28 07:46:11;;;;;;;7.80;7.00;;;18.60;99.90;;;;;;5104074;28;20193;-83
2022/07/28 07:48:36;;;;;;;8.30;7.00;;;18.80;99.90;;;;;;5103045;28;20204;-82
2022/07/28 07:51:02;;;;;;;9.20;6.37;;;18.90;99.90;;;;;;5105236;28;20558;-82
2022/07/28 07:53:28;;;;;;;7.83;7.03;;;19.10;99.90;;;;;;5103017;28;20180;-82
2022/07/28 07:55:53;;;;;;;6.97;6.03;;;19.20;99.90;;;;;;5103105;28;20205;-82
2022/07/28 07:58:19;;;;;;;8.30;7.50;;;19.20;99.90;;;;;;5103091;28;20652;-83
2022/07/28 08:00:45;;;;;;;7.60;6.80;;;19.40;99.90;;;;;;5104327;28;20272;-82
2022/07/28 08:03:10;;;;;;;7.37;6.67;;;19.60;99.90;;;;;;5103380;28;20176;-82
2022/07/28 08:05:36;;;;;;;8.10;6.60;;;19.70;99.90;;;;;;5104503;28;20185;-83
2022/07/28 08:08:04;;;;;;;11.43;7.30;;;19.80;99.90;;;;;;5101902;28;20179;-82
2022/07/28 08:10:29;;;;;;;12.93;6.70;;;19.90;99.90;;;;;;5102191;28;20187;-82
2022/07/28 08:12:55;;;;;;;9.27;6.53;;;20.10;99.90;;;;;;5103172;28;20261;-82
2022/07/28 08:15:21;;;;;;;8.77;6.37;;;20.20;99.90;;;;;;5103119;28;20195;-82
2022/07/28 08:17:46;;;;;;;6.00;5.40;;;20.30;99.90;;;;;;5102317;28;20632;-82
2022/07/28 08:20:12;;;;;;;7.37;5.67;;;20.40;99.90;;;;;;5104106;28;20190;-82
2022/07/28 08:22:52;;;;;;;8.83;6.57;;;20.70;99.90;;;;;;5103134;28;20670;-83
2022/07/28 08:25:19;;;;;;;6.73;6.17;;;20.80;99.90;;;;;;5104183;28;20195;-83
2022/07/28 08:27:45;;;;;;;8.50;6.77;;;21.00;99.90;;;;;;5103856;28;20169;-83
2022/07/28 08:30:13;;;;;;;6.47;5.57;;;21.10;99.90;;;;;;5102401;28;20246;-82
2022/07/28 08:32:40;;;;;;;7.97;6.40;;;21.30;99.90;;;;;;5102494;28;20181;-82
2022/07/28 08:35:06;;;;;;;7.07;6.37;;;21.50;99.90;;;;;;5103499;28;20178;-82
2022/07/28 08:37:32;;;;;;;5.60;5.10;;;21.60;99.90;;;;;;5103209;28;20178;-83
2022/07/28 08:39:58;;;;;;;9.67;5.90;;;21.80;99.90;;;;;;5102374;28;20208;-83
2022/07/28 08:42:47;;;;;;;5.90;4.73;;;22.00;99.90;;;;;;5102865;28;20239;-83
2022/07/28 08:45:14;;;;;;;6.67;4.67;;;22.20;99.90;;;;;;5105024;28;20207;-83
2022/07/28 08:47:42;;;;;;;5.97;5.10;;;22.40;99.90;;;;;;5100480;28;20199;-82
2022/07/28 08:50:10;;;;;;;6.07;4.93;;;22.70;99.90;;;;;;5100601;28;20574;-83
2022/07/28 08:52:38;;;;;;;6.00;5.40;;;22.70;99.90;;;;;;5101369;28;20225;-82
2022/07/28 08:55:07;;;;;;;6.77;5.27;;;22.80;99.90;;;;;;5100630;28;20570;-82
2022/07/28 08:57:40;;;;;;;5.43;4.60;;;22.80;99.90;;;;;;5102013;28;20592;-82
2022/07/28 09:00:09;;;;;;;7.17;4.60;;;23.00;99.90;;;;;;5102212;28;20203;-83
2022/07/28 09:02:40;;;;;;;5.13;4.63;;;23.20;99.90;;;;;;5101774;28;20178;-83
2022/07/28 09:05:06;;;;;;;9.70;4.97;;;23.50;99.90;;;;;;5101370;28;20246;-83
2022/07/28 09:07:36;;;;;;;6.93;4.60;;;23.50;99.90;;;;;;5101028;28;20168;-82
2022/07/28 09:10:05;;;;;;;6.70;4.70;;;23.60;99.90;;;;;;5102913;28;20165;-82
2022/07/28 09:12:34;;;;;;;4.87;4.37;;;23.80;99.90;;;;;;5102304;28;20176;-82
2022/07/28 09:15:08;;;;;;;5.20;4.30;;;24.00;99.90;;;;;;5103328;28;20169;-82
2022/07/28 09:17:35;;;;;;;6.17;4.70;;;24.20;99.90;;;;;;5103407;28;20568;-83
2022/07/28 09:20:03;;;;;;;4.87;4.33;;;24.40;99.90;;;;;;5101713;28;20201;-82
2022/07/28 09:22:31;;;;;;;4.67;4.20;;;24.60;99.90;;;;;;5102115;28;20175;-83
2022/07/28 09:24:56;;;;;;;4.63;4.13;;;24.70;99.90;;;;;;5103874;28;20165;-83
2022/07/28 09:27:22;;;;;;;6.13;4.80;;;24.80;99.90;;;;;;5102902;28;20258;-83
2022/07/28 09:29:57;;;;;;;5.67;4.50;;;24.90;99.90;;;;;;5102826;28;20200;-83
2022/07/28 09:32:24;;;;;;;5.30;3.73;;;25.00;99.90;;;;;;5102540;28;20583;-83
2022/07/28 09:34:51;;;;;;;5.03;3.73;;;25.30;99.90;;;;;;5101493;28;20179;-83
2022/07/28 09:37:17;;;;;;;7.13;3.93;;;25.50;99.90;;;;;;5102479;28;20168;-83
2022/07/28 09:39:44;;;;;;;6.83;4.07;;;25.70;99.90;;;;;;5101079;28;20215;-83
2022/07/28 09:42:10;;;;;;;6.27;4.37;;;25.90;99.90;;;;;;5101258;28;20183;-83
2022/07/28 09:44:36;;;;;;;6.00;3.80;;;26.10;99.90;;;;;;5101875;28;20176;-83
2022/07/28 09:47:22;;;;;;;4.60;4.00;;;26.00;99.90;;;;;;5101109;28;20695;-83
2022/07/28 09:49:49;;;;;;;6.03;4.10;;;26.10;99.90;;;;;;5101426;28;20176;-81
2022/07/28 09:52:28;;;;;;;4.13;3.73;;;26.10;99.90;;;;;;5101279;28;20182;-81
2022/07/28 09:55:08;;;;;;;5.43;3.87;;;26.30;99.90;;;;;;5101361;28;20164;-82
2022/07/28 09:57:36;;;;;;;4.67;3.70;;;26.30;99.90;;;;;;5103964;28;20177;-82
2022/07/28 10:00:06;;;;;;;5.57;3.93;;;26.50;99.90;;;;;;5103126;28;20205;-82
2022/07/28 10:02:32;;;;;;;7.97;4.33;;;26.70;99.90;;;;;;5104892;28;20159;-83
2022/07/28 10:04:59;;;;;;;6.33;3.50;;;26.80;99.90;;;;;;5104909;28;20201;-82
2022/07/28 10:07:29;;;;;;;10.07;3.93;;;26.70;99.90;;;;;;5106003;28;20807;-82
2022/07/28 10:10:02;;;;;;;4.53;3.43;;;26.80;99.90;;;;;;5106332;28;20257;-83
2022/07/28 10:12:31;;;;;;;4.13;3.33;;;26.90;99.90;;;;;;5103945;28;20175;-83
2022/07/28 10:16:11;;;;;;;4.43;3.20;;;27.20;99.90;;;;;;5106307;28;20176;-82
2022/07/28 10:18:05;;;;;;;5.43;3.40;;;27.40;99.90;;;;;;5096635;28;20657;-82
2022/07/28 10:20:32;;;;;;;4.13;3.30;;;27.60;99.90;;;;;;5105386;28;20225;-82
2022/07/28 10:23:01;;;;;;;3.70;2.93;;;27.60;99.90;;;;;;5104759;28;20508;-82
2022/07/28 10:25:31;;;;;;;4.57;3.20;;;27.60;99.90;;;;;;5106101;28;20259;-82
2022/07/28 10:27:59;;;;;;;3.43;3.13;;;27.60;99.90;;;;;;5103387;28;20176;-82
2022/07/28 10:30:27;;;;;;;3.43;3.13;;;27.70;99.90;;;;;;5102882;28;20180;-82
2022/07/28 10:32:55;;;;;;;3.90;2.80;;;27.80;99.90;;;;;;5105816;28;20202;-82
2022/07/28 10:35:21;;;;;;;4.20;2.97;;;27.90;99.90;;;;;;5107294;28;20197;-82
2022/07/28 10:37:57;;;;;;;6.13;2.80;;;27.90;99.90;;;;;;5109313;28;20641;-82
2022/07/28 10:40:39;;;;;;;3.10;2.80;;;28.10;99.90;;;;;;5105062;28;20322;-81
2022/07/28 10:43:06;;;;;;;5.40;3.00;;;28.20;99.90;;;;;;5106005;28;20169;-81
2022/07/28 10:45:33;;;;;;;7.83;2.70;;;28.40;99.90;;;;;;5103954;28;20265;-82
2022/07/28 10:47:59;;;;;;;3.27;2.60;;;28.60;99.90;;;;;;5105437;28;20241;-82
2022/07/28 10:50:25;;;;;;;3.77;2.60;;;28.60;99.90;;;;;;5104796;28;20217;-82
2022/07/28 10:52:52;;;;;;;4.60;2.90;;;28.60;99.90;;;;;;5104911;28;20185;-84
2022/07/28 10:55:43;;;;;;;3.50;2.63;;;28.70;99.90;;;;;;5104991;28;20205;-82
2022/07/28 10:58:22;;;;;;;2.80;2.53;;;28.80;99.90;;;;;;5105054;28;20173;-82
2022/07/28 11:00:51;;;;;;;2.43;2.23;;;28.90;99.90;;;;;;5104858;28;20198;-82
2022/07/28 11:03:41;;;;;;;2.90;2.37;;;29.00;99.90;;;;;;5104555;28;20179;-82
2022/07/28 11:06:26;;;;;;;3.00;2.50;;;29.20;99.90;;;;;;5105711;28;20195;-82
2022/07/28 11:08:56;;;;;;;4.30;2.93;;;29.20;99.90;;;;;;5104787;28;20178;-83
2022/07/28 11:11:41;;;;;;;3.93;2.63;;;29.40;99.90;;;;;;5106385;28;20641;-82
2022/07/28 11:14:22;;;;;;;5.10;2.27;;;29.50;99.90;;;;;;5104946;28;20263;-83
2022/07/28 11:17:00;;;;;;;3.23;2.93;;;29.70;99.90;;;;;;5104685;28;20201;-82
2022/07/28 11:19:28;;;;;;;4.77;2.50;;;30.00;99.90;;;;;;5106046;28;20249;-83
2022/07/28 11:22:23;;;;;;;4.80;2.80;;;30.00;99.90;;;;;;5105321;28;20210;-82
2022/07/28 11:25:03;;;;;;;4.60;2.40;;;30.10;99.90;;;;;;5106109;28;20153;-82
2022/07/28 11:27:39;;;;;;;3.17;2.70;;;30.20;99.90;;;;;;5103930;28;20172;-82
2022/07/28 11:30:06;;;;;;;3.43;2.77;;;30.20;99.90;;;;;;5105653;28;20203;-82
2022/07/28 11:32:58;;;;;;;2.73;2.50;;;30.30;99.90;;;;;;5105814;28;20180;-83
2022/07/28 11:35:26;;;;;;;3.93;2.50;;;30.30;99.90;;;;;;5102131;28;20212;-83
2022/07/28 11:38:01;;;;;;;4.07;2.40;;;30.30;99.90;;;;;;5105760;28;20175;-83
2022/07/28 11:40:31;;;;;;;3.17;2.70;;;30.50;99.90;;;;;;5105982;28;20238;-83
2022/07/28 11:43:25;;;;;;;8.40;4.13;;;30.70;99.90;;;;;;5103013;28;20619;-83
2022/07/28 11:46:00;;;;;;;6.10;2.53;;;30.70;99.90;;;;;;5102824;28;20256;-84
2022/07/28 11:48:27;;;;;;;4.27;2.37;;;30.80;99.90;;;;;;5106279;28;20180;-81
2022/07/28 11:51:01;;;;;;;6.80;2.70;;;30.90;99.90;;;;;;5104793;28;20204;-83
2022/07/28 11:53:37;;;;;;;2.90;2.60;;;31.00;99.90;;;;;;5103641;28;20179;-83
2022/07/28 11:56:05;;;;;;;2.63;2.40;;;31.00;99.90;;;;;;5101384;28;20667;-83
2022/07/28 11:58:31;;;;;;;2.13;2.03;;;30.90;99.90;;;;;;5102585;28;20209;-81
2022/07/28 12:01:09;;;;;;;2.97;2.37;;;30.90;98.40;;;;;;5104244;28;20205;-80
2022/07/28 12:03:36;;;;;;;3.93;2.40;;;30.80;99.90;;;;;;5102477;28;20175;-86
2022/07/28 12:06:02;;;;;;;4.17;2.33;;;31.00;99.90;;;;;;5102303;28;20221;-85
2022/07/28 12:08:28;;;;;;;2.60;2.40;;;31.20;99.90;;;;;;5101834;28;20263;-84
2022/07/28 12:10:54;;;;;;;3.13;2.53;;;31.20;99.50;;;;;;5105636;28;20229;-84
2022/07/28 12:13:29;;;;;;;2.60;2.40;;;31.40;99.90;;;;;;5105284;28;20177;-84
2022/07/28 12:15:55;;;;;;;4.03;2.43;;;;;;;;;;5104115;28;20207;-82
2022/07/28 12:18:21;;;;;;;3.13;2.37;;;31.50;99.90;;;;;;5101131;28;20184;-82
2022/07/28 12:20:48;;;;;;;3.57;2.00;;;31.50;99.90;;;;;;5100870;28;20197;-82
2022/07/28 12:23:14;;;;;;;2.70;2.23;;;;;;;;;;5099449;28;20173;-83
2022/07/28 12:25:45;;;;;;;2.20;2.00;;;31.70;97.10;;;;;;5102001;28;20194;-85
2022/07/28 12:28:21;;;;;;;4.23;2.40;;;31.70;99.90;;;;;;5099240;28;20177;-82
2022/07/28 12:30:51;;;;;;;4.03;2.30;;;31.80;99.90;;;;;;5099126;28;20195;-83
2022/07/28 12:33:18;;;;;;;3.93;2.23;;;31.80;99.80;;;;;;5099661;28;20311;-83
2022/07/28 12:35:45;;;;;;;3.13;2.50;;;32.10;96.90;;;;;;5100997;28;20204;-83
2022/07/28 12:38:11;;;;;;;4.93;2.20;;;;;;;;;;5100505;28;20223;-82
2022/07/28 12:40:38;;;;;;;2.40;2.20;;;32.00;96.50;;;;;;5101253;28;20192;-83
2022/07/28 12:43:04;;;;;;;3.40;2.60;;;32.10;99.90;;;;;;5101638;28;20225;-86
2022/07/28 12:45:34;;;;;;;3.90;2.63;;;;;;;;;;5099787;28;20191;-86
2022/07/28 12:48:07;;;;;;;4.70;2.40;;;31.80;97.30;;;;;;5099963;28;20180;-84
2022/07/28 12:50:39;;;;;;;2.80;2.13;;;31.90;97.10;;;;;;5100218;28;20179;-85
2022/07/28 12:53:10;;;;;;;3.57;2.13;;;32.20;95.90;;;;;;5099747;28;20541;-87
2022/07/28 12:55:37;;;;;;;3.50;2.30;;;32.30;98.20;;;;;;5099252;28;20196;-86
2022/07/28 12:58:03;;;;;;;6.23;2.33;;;32.30;98.50;;;;;;5099653;28;20240;-85
2022/07/28 13:00:34;;;;;;;2.13;1.93;;;32.30;92.20;;;;;;5102367;28;20207;-84
2022/07/28 13:03:18;;;;;;;2.57;2.37;;;32.20;97.80;;;;;;5100639;28;20189;-85